Main page
Satellite images 15-day forecastsClimateMarine weather Cyclones Lightning AirportsFAQ Newsletter About
Weather : Europe Africa North America South America Asia Australia-Oceania Others
Languages Contact

Mangalore, India

Bajpe

latitude: 12-55N, longitude: 074-53E, elevation: 102 m


METAR: out of date (40351 hours)
short-TAF: VOML 021500Z 0218/0303 27010KT 6000 SCT008 SCT012 BKN080 TEMPO 0221/0303 1500 RA/BR SCT005 SCT012 BKN080
long-TAF: VOML 021500Z 0218/0324 27010KT 6000 SCT008 SCT012 BKN080 TEMPO 0221/0303 1500 RA/BR SCT005 SCT012 BKN080 TEMPO 0309/0318 3000 SHRA/RA SCT008 SCT012 FEW025CB BKN080 TEMPO 0321/0324 1500 RA/BR SCT005 SCT012 BKN080

Time: 22:08 (16:38 UTC)

Forecast

The report was made 1 hour and 42 minutes ago, at 14:56 UTC  
Forecast valid from 02 at 18 UTC to 03 at 03 UTC
Wind 10 kt from the West
Visibility 6000 m
Scattered clouds at a height of 800 ft
Scattered clouds at a height of 1200 ft
Broken clouds at a height of 8000 ft
Temporary
from 02 at 21 UTC to 03 at 03 UTC
Visibility 1500 m
Scattered clouds at a height of 500 ft
Scattered clouds at a height of 1200 ft
Broken clouds at a height of 8000 ft

Forecast

The report was made 1 hour and 44 minutes ago, at 14:54 UTC  
Forecast valid from 02 at 18 UTC to 03 at 24 UTC
Wind 10 kt from the West
Visibility 6000 m
Scattered clouds at a height of 800 ft
Scattered clouds at a height of 1200 ft
Broken clouds at a height of 8000 ft
Temporary
from 02 at 21 UTC to 03 at 03 UTC
Visibility 1500 m
Scattered clouds at a height of 500 ft
Scattered clouds at a height of 1200 ft
Broken clouds at a height of 8000 ft
Temporary
from 03 at 09 UTC to 03 at 18 UTC
Visibility 3000 m
Scattered clouds at a height of 800 ft
Scattered clouds at a height of 1200 ft
Few clouds at a height of 2500 ft , Cumulonimbus.
Broken clouds at a height of 8000 ft
Temporary
from 03 at 21 UTC to 03 at 24 UTC
Visibility 1500 m
Scattered clouds at a height of 500 ft
Scattered clouds at a height of 1200 ft
Broken clouds at a height of 8000 ft
The information on this site is subject to a disclaimer
Weather : Europe Africa North America South America Asia Australia-Oceania Others
Satellite images 15-day forecastsClimateMarine weather Cyclones Lightning AirportsFAQ Languages Contact Newsletter About